Terminal Aerodrome Forecast
Issued by NWS

Home | Current Version | Previous Version | Text Only | Print | Product List | Glossary On
Versions: 1 2 3 4 5 6 7 8 9 10 11 12 13 14 15 16 17 18 19 20 21 22
000
FTUS45 KTFX 161400 AAA
TAFCTB
TAF AMD
KCTB 161401Z 1614/1712 VRB05KT 5SM -SN BR SCT020 BKN050
      TEMPO 1614/1616 1/2SM SN FG BKN005
     FM161600 33010KT P6SM -SHSN SCT020 BKN050
      TEMPO 1616/1618 4SM -SN BR BKN020
     FM161900 09010KT P6SM VCSH SCT040 BKN070
     FM170000 14010KT P6SM SCT050 BKN090=

USA.gov is the U.S. government's official web portal to all federal, state and local government web resources and services.